Time;durP1;ratioP1;P1;durP2;ratioP2;P2;SDS_P1;SDS_P2;PMS_P1;PMS_P2;Temp;Humidity;BMP_temperature;BMP_pressure;BME280_temperature;BME280_humidity;BME280_pressure;Samples;Min_cycle;Max_cycle;Signal;HPM_P1;HPM_P2
2023/07/04 00:03:17;;;;;;;5.68;2.80;;;;;;;;;;13018749;22;20469;-84
2023/07/04 00:08:21;;;;;;;6.05;2.85;;;;;;;;;;12972099;22;20020;-84
2023/07/04 00:13:24;;;;;;;6.45;2.63;;;;;;;;;;12970396;22;20089;-84
2023/07/04 00:18:30;;;;;;;5.18;2.58;;;;;;;;;;12974197;22;20083;-85
2023/07/04 00:23:35;;;;;;;4.22;3.10;;;;;;;;;;13018975;22;20020;-84
2023/07/04 00:28:39;;;;;;;3.92;2.30;;;;;;;;;;13019669;22;20032;-85
2023/07/04 00:33:44;;;;;;;4.25;2.65;;;;;;;;;;12974397;22;20103;-85
2023/07/04 00:38:51;;;;;;;3.65;2.35;;;;;;;;;;12973996;22;20046;-83
2023/07/04 00:43:59;;;;;;;3.97;2.33;;;;;;;;;;12974796;22;20020;-84
2023/07/04 00:49:06;;;;;;;4.63;2.80;;;;;;;;;;12974553;22;20027;-84
2023/07/04 00:54:10;;;;;;;6.00;2.70;;;;;;;;;;12974734;22;20079;-84
2023/07/04 00:59:13;;;;;;;4.35;2.70;;;;;;;;;;12974240;22;20046;-84
2023/07/04 01:04:18;;;;;;;5.10;2.45;;;;;;;;;;12973704;22;20023;-84
2023/07/04 01:09:24;;;;;;;4.78;2.97;;;;;;;;;;12973854;22;20077;-84
2023/07/04 01:14:28;;;;;;;3.65;2.60;;;;;;;;;;12974180;22;20027;-84
2023/07/04 01:19:35;;;;;;;4.15;2.58;;;;;;;;;;13001981;22;20020;-84
2023/07/04 01:24:47;;;;;;;3.95;2.40;;;;;;;;;;12975071;22;20023;-84
2023/07/04 01:29:54;;;;;;;4.25;2.40;;;;;;;;;;12973097;22;20525;-85
2023/07/04 01:35:00;;;;;;;4.05;2.50;;;;;;;;;;12975745;22;20023;-84
2023/07/04 01:40:07;;;;;;;4.70;2.58;;;;;;;;;;12974300;22;20037;-84
2023/07/04 01:45:13;;;;;;;3.55;2.35;;;;;;;;;;12973738;22;20401;-85
2023/07/04 01:50:18;;;;;;;3.47;2.35;;;;;;;;;;12973143;22;20028;-84
2023/07/04 01:55:21;;;;;;;4.60;2.95;;;;;;;;;;13000925;22;20045;-85
2023/07/04 02:00:26;;;;;;;3.40;2.30;;;;;;;;;;12974072;22;20074;-84
2023/07/04 02:05:29;;;;;;;3.90;2.45;;;;;;;;;;12999176;22;20039;-84
2023/07/04 02:10:33;;;;;;;6.30;2.72;;;;;;;;;;12973078;22;20023;-84
2023/07/04 02:15:38;;;;;;;6.40;2.78;;;;;;;;;;12973463;22;20020;-84
2023/07/04 02:20:41;;;;;;;4.60;2.60;;;;;;;;;;13000200;22;20019;-84
2023/07/04 02:25:45;;;;;;;6.90;2.72;;;;;;;;;;12972329;22;20019;-84
2023/07/04 02:30:57;;;;;;;5.10;2.47;;;;;;;;;;13007555;22;20369;-84
2023/07/04 02:36:02;;;;;;;6.13;2.33;;;;;;;;;;12972457;22;20050;-84
2023/07/04 02:41:06;;;;;;;5.40;2.50;;;;;;;;;;12973957;22;20075;-84
2023/07/04 02:46:11;;;;;;;3.00;2.10;;;;;;;;;;12972538;22;20020;-84
2023/07/04 02:51:20;;;;;;;5.03;2.97;;;;;;;;;;12972180;22;20482;-84
2023/07/04 02:56:23;;;;;;;5.80;2.90;;;;;;;;;;12971270;22;20020;-85
2023/07/04 03:01:29;;;;;;;3.38;2.33;;;;;;;;;;12971428;22;20073;-83
2023/07/04 03:06:33;;;;;;;3.75;2.75;;;;;;;;;;12971708;22;20019;-84
2023/07/04 03:11:37;;;;;;;4.28;2.42;;;;;;;;;;12954628;22;20031;-86
2023/07/04 03:16:42;;;;;;;5.53;2.58;;;;;;;;;;12952885;22;20024;-85
2023/07/04 03:21:46;;;;;;;3.22;1.98;;;;;;;;;;12953513;22;20023;-86
2023/07/04 03:26:52;;;;;;;4.55;2.28;;;;;;;;;;12953866;22;20065;-86
2023/07/04 03:31:57;;;;;;;2.35;1.90;;;;;;;;;;12953612;22;20031;-86
2023/07/04 03:37:01;;;;;;;3.30;2.17;;;;;;;;;;12951671;22;20601;-85
2023/07/04 03:42:05;;;;;;;4.55;2.60;;;;;;;;;;12972561;22;20019;-84
2023/07/04 03:47:10;;;;;;;3.70;2.17;;;;;;;;;;13000232;22;20019;-84
2023/07/04 03:52:14;;;;;;;4.25;2.25;;;;;;;;;;12975982;22;20040;-84
2023/07/04 03:57:18;;;;;;;5.68;3.00;;;;;;;;;;12976744;22;20023;-84
2023/07/04 04:02:23;;;;;;;6.47;2.42;;;;;;;;;;12975894;22;20019;-84
2023/07/04 04:07:27;;;;;;;3.33;1.98;;;;;;;;;;12975179;22;20102;-84
2023/07/04 04:12:30;;;;;;;5.65;2.53;;;;;;;;;;13002666;22;20027;-84
2023/07/04 04:17:35;;;;;;;3.78;2.10;;;;;;;;;;12975322;22;20026;-83
2023/07/04 04:22:43;;;;;;;4.82;2.00;;;;;;;;;;12975120;22;20024;-84
2023/07/04 04:27:47;;;;;;;4.72;2.35;;;;;;;;;;12971107;22;20069;-86
2023/07/04 04:32:54;;;;;;;3.15;2.08;;;;;;;;;;12959590;22;20024;-86
2023/07/04 04:45:25;;;;;;;6.55;2.47;;;;;;;;;;13003980;22;20015;-90
2023/07/04 04:50:30;;;;;;;2.92;1.83;;;;;;;;;;12950269;22;20069;-88
2023/07/04 04:55:35;;;;;;;5.28;1.88;;;;;;;;;;12950236;22;20455;-89
2023/07/04 05:00:38;;;;;;;3.45;2.08;;;;;;;;;;12975248;22;20031;-89
2023/07/04 05:05:43;;;;;;;4.03;2.08;;;;;;;;;;12949972;22;20027;-89
2023/07/04 05:10:47;;;;;;;3.08;1.90;;;;;;;;;;12975082;22;20030;-92
2023/07/04 05:15:59;;;;;;;3.75;2.00;;;;;;;;;;12949245;22;20030;-90
2023/07/04 05:21:07;;;;;;;3.72;1.75;;;;;;;;;;12948282;22;20050;-90
2023/07/04 05:26:13;;;;;;;3.33;1.90;;;;;;;;;;12975128;22;20401;-90
2023/07/04 05:31:18;;;;;;;6.30;1.90;;;;;;;;;;12976743;22;20027;-90
2023/07/04 05:36:25;;;;;;;3.88;1.50;;;;;;;;;;12949759;22;20525;-90
2023/07/04 05:41:31;;;;;;;3.55;1.70;;;;;;;;;;12948984;22;20562;-93
2023/07/04 05:46:36;;;;;;;4.30;2.03;;;;;;;;;;12950166;22;20103;-90
2023/07/04 05:51:55;;;;;;;2.92;1.55;;;;;;;;;;12956440;22;20019;-91
2023/07/04 05:57:55;;;;;;;4.13;1.50;;;;;;;;;;12990913;22;20022;-90
2023/07/04 06:03:18;;;;;;;4.22;1.75;;;;;;;;;;12958895;22;20020;-94
2023/07/04 06:08:33;;;;;;;4.72;2.00;;;;;;;;;;12952275;22;20094;-92
2023/07/04 06:14:21;;;;;;;4.20;1.95;;;;;;;;;;12983973;22;20078;-91
2023/07/04 06:19:52;;;;;;;4.63;1.90;;;;;;;;;;12954340;22;20069;-94
2023/07/04 06:25:16;;;;;;;3.28;1.85;;;;;;;;;;12979809;22;20028;-91
2023/07/04 06:30:39;;;;;;;4.47;2.10;;;;;;;;;;12981981;22;20031;-92
2023/07/04 06:35:57;;;;;;;7.97;2.65;;;;;;;;;;12983684;22;20053;-92
2023/07/04 06:41:11;;;;;;;5.43;1.90;;;;;;;;;;12935451;22;20019;-94
2023/07/04 06:46:23;;;;;;;8.45;3.05;;;;;;;;;;12976891;22;20030;-91
2023/07/04 06:51:30;;;;;;;3.72;1.50;;;;;;;;;;12954405;22;20024;-93
2023/07/04 06:56:40;;;;;;;5.68;1.63;;;;;;;;;;12954917;22;20533;-93
2023/07/04 07:01:43;;;;;;;4.90;1.87;;;;;;;;;;12976947;22;20103;-90
2023/07/04 07:06:49;;;;;;;8.98;2.53;;;;;;;;;;12951967;22;20035;-92
2023/07/04 07:11:56;;;;;;;4.28;1.77;;;;;;;;;;12954984;22;20074;-92
2023/07/04 07:17:00;;;;;;;7.03;2.38;;;;;;;;;;12952338;22;20023;-93
2023/07/04 07:22:05;;;;;;;5.45;2.60;;;;;;;;;;12985024;22;20131;-91
2023/07/04 07:27:10;;;;;;;6.15;2.55;;;;;;;;;;12974534;22;20103;-91
2023/07/04 07:32:14;;;;;;;6.80;2.72;;;;;;;;;;12978069;22;20027;-92
2023/07/04 07:37:20;;;;;;;;;;;;;;;;;;12979938;22;20019;-93
2023/07/04 07:42:25;;;;;;;6.43;2.08;;;;;;;;;;12957454;22;19915;-92
2023/07/04 07:47:29;;;;;;;5.57;1.80;;;;;;;;;;12956223;22;20030;-93
2023/07/04 07:52:33;;;;;;;6.22;2.20;;;;;;;;;;12978783;22;20028;-92
2023/07/04 07:57:38;;;;;;;4.00;1.52;;;;;;;;;;12954330;22;20073;-92
2023/07/04 08:02:42;;;;;;;9.20;2.80;;;;;;;;;;12952493;22;20019;-90
2023/07/04 08:07:46;;;;;;;5.63;2.17;;;;;;;;;;12949568;22;20019;-91
2023/07/04 08:12:51;;;;;;;8.23;2.30;;;;;;;;;;12947735;22;20038;-91
2023/07/04 08:17:56;;;;;;;4.55;2.03;;;;;;;;;;12949500;22;20048;-92
2023/07/04 08:23:00;;;;;;;2.78;2.10;;;;;;;;;;12971556;22;20085;-91
2023/07/04 08:28:05;;;;;;;8.10;2.70;;;;;;;;;;12949639;22;20077;-92
2023/07/04 08:33:09;;;;;;;4.73;2.40;;;;;;;;;;12949860;22;20316;-93
2023/07/04 08:38:18;;;;;;;5.85;2.72;;;;;;;;;;12974813;22;20019;-93
2023/07/04 08:43:33;;;;;;;6.03;1.80;;;;;;;;;;12975905;22;20016;-92
2023/07/04 08:48:51;;;;;;;5.65;2.88;;;;;;;;;;12980518;22;20024;-94
2023/07/04 08:53:59;;;;;;;6.65;3.78;;;;;;;;;;12951807;22;20473;-92
2023/07/04 08:59:14;;;;;;;5.20;2.60;;;;;;;;;;12973738;22;20391;-92
2023/07/04 09:04:24;;;;;;;5.22;2.50;;;;;;;;;;12948110;22;20378;-93
2023/07/04 09:09:39;;;;;;;6.80;3.05;;;;;;;;;;12948464;22;20020;-94
2023/07/04 09:14:51;;;;;;;3.88;2.83;;;;;;;;;;12974245;22;20027;-93
2023/07/04 09:19:56;;;;;;;5.63;3.58;;;;;;;;;;12950587;22;20020;-92
2023/07/04 09:25:00;;;;;;;5.35;2.97;;;;;;;;;;12978580;22;20646;-93
2023/07/04 09:30:12;;;;;;;4.80;2.90;;;;;;;;;;12951257;22;20031;-92
2023/07/04 09:35:24;;;;;;;4.43;2.88;;;;;;;;;;12975779;22;20023;-94
2023/07/04 09:40:48;;;;;;;5.10;3.30;;;;;;;;;;12932950;22;20093;-92
2023/07/04 09:46:18;;;;;;;5.35;3.10;;;;;;;;;;12973833;22;20074;-93
2023/07/04 09:51:29;;;;;;;7.50;4.18;;;;;;;;;;12951328;22;20030;-95
2023/07/04 09:56:47;;;;;;;4.35;3.13;;;;;;;;;;12975662;22;20020;-92
2023/07/04 10:01:59;;;;;;;8.52;4.28;;;;;;;;;;12974685;22;20039;-91
2023/07/04 10:07:04;;;;;;;5.65;3.58;;;;;;;;;;12973978;22;20524;-92
2023/07/04 10:12:13;;;;;;;9.17;4.17;;;;;;;;;;12976288;22;20020;-95
2023/07/04 10:17:21;;;;;;;7.57;3.72;;;;;;;;;;12950961;22;20099;-91
2023/07/04 10:22:29;;;;;;;5.63;3.80;;;;;;;;;;12975997;22;20070;-91
2023/07/04 10:27:38;;;;;;;5.38;3.70;;;;;;;;;;12950904;22;20089;-92
2023/07/04 10:32:48;;;;;;;5.63;3.55;;;;;;;;;;12948686;22;20546;-92
2023/07/04 10:37:55;;;;;;;5.60;3.50;;;;;;;;;;12963826;22;20015;-85
2023/07/04 10:43:02;;;;;;;5.38;3.72;;;;;;;;;;12985067;22;20043;-83
2023/07/04 10:48:12;;;;;;;7.05;3.58;;;;;;;;;;12939596;22;20019;-83
2023/07/04 10:53:18;;;;;;;4.47;3.22;;;;;;;;;;12983869;22;20332;-84
2023/07/04 10:58:24;;;;;;;5.95;3.80;;;;;;;;;;12965968;22;20015;-84
2023/07/04 11:03:38;;;;;;;5.90;3.85;;;;;;;;;;12937404;22;20019;-83
2023/07/04 11:08:42;;;;;;;6.85;4.32;;;;;;;;;;12967105;22;20028;-84
2023/07/04 11:13:51;;;;;;;5.70;4.18;;;;;;;;;;12936171;22;20070;-83
2023/07/04 11:19:04;;;;;;;5.55;4.15;;;;;;;;;;12938585;22;20511;-85
2023/07/04 11:24:14;;;;;;;6.82;4.15;;;;;;;;;;12939486;22;20016;-84
2023/07/04 11:29:19;;;;;;;4.47;3.95;;;;;;;;;;12939815;22;20050;-84
2023/07/04 11:34:43;;;;;;;4.55;3.50;;;;;;;;;;12939198;22;20058;-84
2023/07/04 11:39:52;;;;;;;6.03;3.92;;;;;;;;;;12939266;22;20019;-86
2023/07/04 11:45:00;;;;;;;5.75;4.75;;;;;;;;;;12938916;22;20023;-85
2023/07/04 11:50:11;;;;;;;9.27;5.35;;;;;;;;;;12965586;22;20015;-84
2023/07/04 11:55:17;;;;;;;5.05;3.75;;;;;;;;;;12937487;22;20031;-85
2023/07/04 12:00:54;;;;;;;5.25;4.15;;;;;;;;;;12966610;22;20023;-85
2023/07/04 12:06:01;;;;;;;9.13;5.18;;;;;;;;;;12937702;22;20098;-85
2023/07/04 12:11:06;;;;;;;6.90;4.75;;;;;;;;;;12965701;22;20012;-85
2023/07/04 12:16:11;;;;;;;5.90;4.60;;;;;;;;;;12966602;22;20035;-85
2023/07/04 12:21:19;;;;;;;5.00;4.23;;;;;;;;;;12942121;22;20020;-86
2023/07/04 12:26:23;;;;;;;7.70;5.43;;;;;;;;;;12939696;22;20031;-85
2023/07/04 12:31:26;;;;;;;8.05;5.30;;;;;;;;;;12939762;22;20020;-84
2023/07/04 12:36:45;;;;;;;6.35;4.32;;;;;;;;;;12939924;22;20561;-83
2023/07/04 12:41:51;;;;;;;6.53;4.80;;;;;;;;;;12970150;22;20019;-83
2023/07/04 12:46:54;;;;;;;6.22;4.88;;;;;;;;;;12970158;22;20062;-83
2023/07/04 12:52:02;;;;;;;5.55;4.50;;;;;;;;;;12938724;22;20016;-83
2023/07/04 12:57:12;;;;;;;6.75;4.75;;;;;;;;;;12940012;22;20039;-84
2023/07/04 13:02:22;;;;;;;6.90;4.35;;;;;;;;;;12938867;22;20050;-84
2023/07/04 13:07:27;;;;;;;8.65;6.00;;;;;;;;;;12938927;22;20027;-84
2023/07/04 13:12:34;;;;;;;6.68;4.60;;;;;;;;;;12938532;22;20031;-84
2023/07/04 13:17:37;;;;;;;7.22;4.22;;;;;;;;;;12941379;22;20387;-84
2023/07/04 13:22:42;;;;;;;6.38;3.42;;;;;;;;;;12937744;22;20028;-84
2023/07/04 13:27:48;;;;;;;7.10;4.25;;;;;;;;;;12941467;22;20027;-83
2023/07/04 13:32:52;;;;;;;7.13;4.85;;;;;;;;;;12988198;22;20019;-83
2023/07/04 13:38:00;;;;;;;7.18;4.45;;;;;;;;;;12937225;22;20077;-84
2023/07/04 13:43:13;;;;;;;5.63;3.53;;;;;;;;;;12938826;22;20422;-84
2023/07/04 13:48:19;;;;;;;9.15;5.38;;;;;;;;;;12941533;22;20019;-84
2023/07/04 13:53:24;;;;;;;7.85;4.78;;;;;;;;;;12937761;22;20595;-84
2023/07/04 13:58:27;;;;;;;;;;;;;;;;;;12968782;22;20019;-83
2023/07/04 14:03:33;;;;;;;8.50;5.65;;;;;;;;;;12940086;22;19923;-85
2023/07/04 14:08:42;;;;;;;5.85;4.22;;;;;;;;;;12939675;22;20027;-83
2023/07/04 14:13:47;;;;;;;6.93;4.68;;;;;;;;;;12936380;22;20105;-83
2023/07/04 14:18:50;;;;;;;10.82;6.03;;;;;;;;;;12964865;22;20370;-85
2023/07/04 14:23:58;;;;;;;6.90;4.53;;;;;;;;;;12965307;22;20524;-84
2023/07/04 14:29:01;;;;;;;7.07;5.40;;;;;;;;;;12937773;22;20402;-84
2023/07/04 14:34:04;;;;;;;7.28;4.78;;;;;;;;;;12981086;22;20274;-85
2023/07/04 14:39:10;;;;;;;11.60;7.32;;;;;;;;;;13002027;22;20027;-84
2023/07/04 14:44:13;;;;;;;8.25;5.55;;;;;;;;;;13026376;22;20038;-86
2023/07/04 14:49:17;;;;;;;9.98;5.93;;;;;;;;;;13025817;22;20043;-85
2023/07/04 14:54:21;;;;;;;9.52;6.72;;;;;;;;;;13027104;22;20092;-84
2023/07/04 14:59:25;;;;;;;9.63;6.30;;;;;;;;;;13028041;22;20027;-84
2023/07/04 15:04:28;;;;;;;9.70;6.05;;;;;;;;;;12998716;22;20034;-84
2023/07/04 15:09:34;;;;;;;7.85;5.72;;;;;;;;;;13028148;22;20030;-84
2023/07/04 15:14:38;;;;;;;9.00;6.07;;;;;;;;;;12999200;22;20742;-84
2023/07/04 15:19:42;;;;;;;9.40;6.13;;;;;;;;;;12999279;22;20094;-84
2023/07/04 15:24:47;;;;;;;11.63;7.13;;;;;;;;;;13038065;22;20035;-84
2023/07/04 15:29:50;;;;;;;9.07;5.50;;;;;;;;;;13039199;22;20458;-84
2023/07/04 15:34:54;;;;;;;5.95;4.63;;;;;;;;;;13037640;22;20642;-85
2023/07/04 15:40:02;;;;;;;6.95;4.88;;;;;;;;;;12997159;22;20149;-84
2023/07/04 15:45:06;;;;;;;6.90;4.35;;;;;;;;;;13001581;22;20110;-84
2023/07/04 15:50:10;;;;;;;5.78;4.30;;;;;;;;;;13030257;22;20031;-84
2023/07/04 15:55:15;;;;;;;6.22;4.65;;;;;;;;;;13030988;22;20043;-84
2023/07/04 16:00:19;;;;;;;6.63;4.00;;;;;;;;;;13002634;22;20019;-84
2023/07/04 16:05:22;;;;;;;6.32;3.58;;;;;;;;;;13029280;22;20050;-84
2023/07/04 16:10:27;;;;;;;5.28;3.53;;;;;;;;;;13003762;22;20061;-84
2023/07/04 16:15:31;;;;;;;7.17;3.93;;;;;;;;;;13041034;22;20050;-83
2023/07/04 16:20:34;;;;;;;4.03;2.58;;;;;;;;;;13042760;22;20019;-84
2023/07/04 16:25:41;;;;;;;3.70;2.85;;;;;;;;;;13030343;22;20023;-83
2023/07/04 16:30:44;;;;;;;4.43;3.25;;;;;;;;;;13005595;22;20077;-85
2023/07/04 17:42:01;;;;;;;4.80;2.90;;;;;;;;;;12990346;22;20254;-92
2023/07/04 17:47:08;;;;;;;5.50;3.63;;;;;;;;;;12973675;22;20073;-92
2023/07/04 17:52:19;;;;;;;4.35;2.50;;;;;;;;;;12948946;22;20016;-92
2023/07/04 17:57:25;;;;;;;3.72;2.63;;;;;;;;;;12945775;22;20028;-92
2023/07/04 18:02:40;;;;;;;3.05;2.15;;;;;;;;;;12947504;22;20030;-92
2023/07/04 18:07:46;;;;;;;2.35;2.05;;;;;;;;;;12941762;22;20031;-92
2023/07/04 18:12:52;;;;;;;2.90;2.15;;;;;;;;;;12946709;22;20018;-91
2023/07/04 18:18:02;;;;;;;3.33;2.10;;;;;;;;;;12943753;22;20019;-92
2023/07/04 18:23:16;;;;;;;3.03;2.00;;;;;;;;;;12947011;22;20027;-92
2023/07/04 18:28:25;;;;;;;2.92;2.22;;;;;;;;;;12941983;22;20023;-90
2023/07/04 18:33:29;;;;;;;2.75;1.98;;;;;;;;;;12945963;22;20524;-91
2023/07/04 18:38:36;;;;;;;3.65;2.00;;;;;;;;;;12946711;22;20095;-92
2023/07/04 18:43:42;;;;;;;3.78;2.35;;;;;;;;;;12979741;22;20024;-93
2023/07/04 18:48:49;;;;;;;3.05;2.20;;;;;;;;;;12971160;22;20366;-92
2023/07/04 18:54:00;;;;;;;3.17;2.47;;;;;;;;;;12959700;22;20019;-92
2023/07/04 18:59:20;;;;;;;3.85;2.08;;;;;;;;;;12980062;22;20545;-92
2023/07/04 19:04:35;;;;;;;;;;;;;;;;;;12959569;22;20225;-92
2023/07/04 19:09:48;;;;;;;2.17;1.70;;;;;;;;;;12971027;22;19922;-92
2023/07/04 19:15:09;;;;;;;2.40;1.92;;;;;;;;;;12984736;22;20387;-92
2023/07/04 19:20:26;;;;;;;3.10;1.80;;;;;;;;;;12955791;22;20023;-93
2023/07/04 19:25:39;;;;;;;1.98;1.70;;;;;;;;;;12936452;22;20474;-93
2023/07/04 19:31:14;;;;;;;2.65;1.63;;;;;;;;;;12964111;22;20020;-92
2023/07/04 19:36:57;;;;;;;4.00;1.70;;;;;;;;;;12958464;22;20354;-92
2023/07/04 19:49:15;;;;;;;;;;;;;;;;;;;;;
2023/07/04 19:54:56;;;;;;;2.78;1.88;;;;;;;;;;13004558;22;20035;-92
2023/07/04 20:00:24;;;;;;;2.55;1.60;;;;;;;;;;12971962;22;20031;-92
2023/07/04 20:12:17;;;;;;;4.07;1.80;;;;;;;;;;12718105;23;20033;-92
2023/07/04 20:17:39;;;;;;;2.58;1.50;;;;;;;;;;12795780;22;20031;-92
2023/07/04 20:23:24;;;;;;;1.17;1.00;;;;;;;;;;12942436;22;20026;-93
2023/07/04 20:46:56;;;;;;;0.68;0.57;;;;;;;;;;12598504;23;20022;-94
2023/07/04 20:59:35;;;;;;;0.40;0.40;;;;;;;;;;12897459;23;20028;-93
2023/07/04 21:05:02;;;;;;;0.30;0.30;;;;;;;;;;12870691;23;20500;-92
2023/07/04 21:16:20;;;;;;;0.40;0.30;;;;;;;;;;12898768;22;20103;-93
2023/07/04 21:27:28;;;;;;;0.50;0.47;;;;;;;;;;12672290;23;20024;-92
2023/07/04 21:38:53;;;;;;;1.45;0.60;;;;;;;;;;12907228;22;20402;-90
2023/07/04 21:44:01;;;;;;;1.33;0.90;;;;;;;;;;12882573;23;20035;-91
2023/07/04 21:49:17;;;;;;;1.88;0.90;;;;;;;;;;12946792;22;20039;-90
2023/07/04 21:54:29;;;;;;;1.33;0.80;;;;;;;;;;12932083;22;20150;-92
2023/07/04 21:59:37;;;;;;;0.68;0.60;;;;;;;;;;12929729;22;20035;-91
2023/07/04 22:04:46;;;;;;;2.42;0.90;;;;;;;;;;12945973;22;20019;-92
2023/07/04 22:09:56;;;;;;;1.10;0.52;;;;;;;;;;12938597;22;20340;-91
2023/07/04 22:15:32;;;;;;;0.77;0.57;;;;;;;;;;12946905;22;20450;-91
2023/07/04 22:20:45;;;;;;;0.65;0.50;;;;;;;;;;12972848;22;20023;-91
2023/07/04 22:26:14;;;;;;;0.80;0.60;;;;;;;;;;12926844;22;20020;-92
